sensor_id;sensor_type;location;lat;lon;timestamp;temperature;humidity
14411;DHT22;7290;50.854;4.354;2022-08-01T00:01:46;22.60;99.90
14411;DHT22;7290;50.854;4.354;2022-08-01T00:04:12;22.60;99.90
14411;DHT22;7290;50.854;4.354;2022-08-01T00:06:38;22.50;99.90
14411;DHT22;7290;50.854;4.354;2022-08-01T00:09:04;22.50;99.90
14411;DHT22;7290;50.854;4.354;2022-08-01T00:11:30;22.40;99.90
14411;DHT22;7290;50.854;4.354;2022-08-01T00:13:56;22.40;99.90
14411;DHT22;7290;50.854;4.354;2022-08-01T00:16:22;22.40;99.90
14411;DHT22;7290;50.854;4.354;2022-08-01T00:18:49;22.40;99.90
14411;DHT22;7290;50.854;4.354;2022-08-01T00:21:15;22.30;99.90
14411;DHT22;7290;50.854;4.354;2022-08-01T00:23:41;22.40;99.90
14411;DHT22;7290;50.854;4.354;2022-08-01T00:26:07;22.30;99.90
14411;DHT22;7290;50.854;4.354;2022-08-01T00:28:33;22.10;99.90
14411;DHT22;7290;50.854;4.354;2022-08-01T00:30:59;22.00;99.90
14411;DHT22;7290;50.854;4.354;2022-08-01T00:33:25;22.10;99.90
14411;DHT22;7290;50.854;4.354;2022-08-01T00:35:51;22.20;99.90
14411;DHT22;7290;50.854;4.354;2022-08-01T00:38:17;22.20;99.90
14411;DHT22;7290;50.854;4.354;2022-08-01T00:40:43;22.30;99.90
14411;DHT22;7290;50.854;4.354;2022-08-01T00:43:10;22.10;99.90
14411;DHT22;7290;50.854;4.354;2022-08-01T00:45:36;22.20;99.90
14411;DHT22;7290;50.854;4.354;2022-08-01T00:48:02;22.00;99.90
14411;DHT22;7290;50.854;4.354;2022-08-01T00:50:28;21.90;99.90
14411;DHT22;7290;50.854;4.354;2022-08-01T00:52:54;21.80;99.90
14411;DHT22;7290;50.854;4.354;2022-08-01T00:55:21;21.90;99.90
14411;DHT22;7290;50.854;4.354;2022-08-01T00:57:47;21.90;99.90
14411;DHT22;7290;50.854;4.354;2022-08-01T01:00:13;22.00;99.90
14411;DHT22;7290;50.854;4.354;2022-08-01T01:02:39;22.10;99.90
14411;DHT22;7290;50.854;4.354;2022-08-01T01:05:05;22.20;99.90
14411;DHT22;7290;50.854;4.354;2022-08-01T01:07:34;22.20;99.90
14411;DHT22;7290;50.854;4.354;2022-08-01T01:10:03;22.20;99.90
14411;DHT22;7290;50.854;4.354;2022-08-01T01:12:31;22.20;99.90
14411;DHT22;7290;50.854;4.354;2022-08-01T01:15:01;22.00;99.90
14411;DHT22;7290;50.854;4.354;2022-08-01T01:17:32;22.10;99.90
14411;DHT22;7290;50.854;4.354;2022-08-01T01:20:01;22.20;99.90
14411;DHT22;7290;50.854;4.354;2022-08-01T01:22:36;22.20;99.90
14411;DHT22;7290;50.854;4.354;2022-08-01T01:25:09;22.20;99.90
14411;DHT22;7290;50.854;4.354;2022-08-01T01:27:42;22.30;99.90
14411;DHT22;7290;50.854;4.354;2022-08-01T01:30:11;22.20;99.90
14411;DHT22;7290;50.854;4.354;2022-08-01T01:32:38;22.10;99.90
14411;DHT22;7290;50.854;4.354;2022-08-01T01:35:06;22.10;99.90
14411;DHT22;7290;50.854;4.354;2022-08-01T01:37:33;22.00;99.90
14411;DHT22;7290;50.854;4.354;2022-08-01T01:40:00;22.00;99.90
14411;DHT22;7290;50.854;4.354;2022-08-01T01:42:26;22.00;99.90
14411;DHT22;7290;50.854;4.354;2022-08-01T01:44:52;21.90;99.90
14411;DHT22;7290;50.854;4.354;2022-08-01T01:47:20;22.00;99.90
14411;DHT22;7290;50.854;4.354;2022-08-01T01:49:47;21.90;99.90
14411;DHT22;7290;50.854;4.354;2022-08-01T01:52:15;21.80;99.90
14411;DHT22;7290;50.854;4.354;2022-08-01T01:54:42;21.90;99.90
14411;DHT22;7290;50.854;4.354;2022-08-01T01:57:10;21.90;99.90
14411;DHT22;7290;50.854;4.354;2022-08-01T01:59:37;21.90;99.90
14411;DHT22;7290;50.854;4.354;2022-08-01T02:02:04;21.70;99.90
14411;DHT22;7290;50.854;4.354;2022-08-01T02:04:31;21.60;99.90
14411;DHT22;7290;50.854;4.354;2022-08-01T02:06:58;21.60;99.90
14411;DHT22;7290;50.854;4.354;2022-08-01T02:09:24;21.70;99.90
14411;DHT22;7290;50.854;4.354;2022-08-01T02:11:51;21.70;99.90
14411;DHT22;7290;50.854;4.354;2022-08-01T02:14:18;21.70;99.90
14411;DHT22;7290;50.854;4.354;2022-08-01T02:16:46;21.70;99.90
14411;DHT22;7290;50.854;4.354;2022-08-01T02:19:13;21.70;99.90
14411;DHT22;7290;50.854;4.354;2022-08-01T02:21:43;21.60;99.90
14411;DHT22;7290;50.854;4.354;2022-08-01T02:24:12;21.60;99.90
14411;DHT22;7290;50.854;4.354;2022-08-01T02:26:39;21.70;99.90
14411;DHT22;7290;50.854;4.354;2022-08-01T02:29:06;21.70;99.90
14411;DHT22;7290;50.854;4.354;2022-08-01T02:31:34;21.80;99.90
14411;DHT22;7290;50.854;4.354;2022-08-01T02:34:02;21.80;99.90
14411;DHT22;7290;50.854;4.354;2022-08-01T02:36:29;21.80;99.90
14411;DHT22;7290;50.854;4.354;2022-08-01T02:38:56;21.70;99.90
14411;DHT22;7290;50.854;4.354;2022-08-01T02:41:24;21.80;99.90
14411;DHT22;7290;50.854;4.354;2022-08-01T02:43:52;21.70;99.90
14411;DHT22;7290;50.854;4.354;2022-08-01T02:46:20;21.70;99.90
14411;DHT22;7290;50.854;4.354;2022-08-01T02:48:47;21.70;99.90
14411;DHT22;7290;50.854;4.354;2022-08-01T02:51:13;21.70;99.90
14411;DHT22;7290;50.854;4.354;2022-08-01T02:53:41;21.70;99.90
14411;DHT22;7290;50.854;4.354;2022-08-01T02:56:08;21.70;99.90
14411;DHT22;7290;50.854;4.354;2022-08-01T02:58:36;21.70;99.90
14411;DHT22;7290;50.854;4.354;2022-08-01T03:01:02;21.70;99.90
14411;DHT22;7290;50.854;4.354;2022-08-01T03:03:28;21.80;99.90
14411;DHT22;7290;50.854;4.354;2022-08-01T03:05:55;21.80;99.90
14411;DHT22;7290;50.854;4.354;2022-08-01T03:08:22;21.70;99.90
14411;DHT22;7290;50.854;4.354;2022-08-01T03:10:49;21.70;99.90
14411;DHT22;7290;50.854;4.354;2022-08-01T03:13:16;21.60;99.90
14411;DHT22;7290;50.854;4.354;2022-08-01T03:15:43;21.70;99.90
14411;DHT22;7290;50.854;4.354;2022-08-01T03:18:10;21.60;99.90
14411;DHT22;7290;50.854;4.354;2022-08-01T03:20:37;21.60;99.90
14411;DHT22;7290;50.854;4.354;2022-08-01T03:23:04;21.50;99.90
14411;DHT22;7290;50.854;4.354;2022-08-01T03:25:30;21.50;99.90
14411;DHT22;7290;50.854;4.354;2022-08-01T03:27:58;21.50;99.90
14411;DHT22;7290;50.854;4.354;2022-08-01T03:30:26;21.50;99.90
14411;DHT22;7290;50.854;4.354;2022-08-01T03:32:52;21.40;99.90
14411;DHT22;7290;50.854;4.354;2022-08-01T03:35:18;21.20;99.90
14411;DHT22;7290;50.854;4.354;2022-08-01T03:37:45;21.20;99.90
14411;DHT22;7290;50.854;4.354;2022-08-01T03:40:13;21.20;99.90
14411;DHT22;7290;50.854;4.354;2022-08-01T03:42:43;21.30;99.90
14411;DHT22;7290;50.854;4.354;2022-08-01T03:45:11;21.30;99.90
14411;DHT22;7290;50.854;4.354;2022-08-01T03:47:42;21.30;99.90
14411;DHT22;7290;50.854;4.354;2022-08-01T03:50:08;21.40;99.90
14411;DHT22;7290;50.854;4.354;2022-08-01T03:52:35;21.50;99.90
14411;DHT22;7290;50.854;4.354;2022-08-01T03:55:04;21.40;99.90
14411;DHT22;7290;50.854;4.354;2022-08-01T03:57:32;21.40;99.90
14411;DHT22;7290;50.854;4.354;2022-08-01T03:59:58;21.30;99.90
14411;DHT22;7290;50.854;4.354;2022-08-01T04:02:25;21.30;99.90
14411;DHT22;7290;50.854;4.354;2022-08-01T04:04:52;21.20;99.90
14411;DHT22;7290;50.854;4.354;2022-08-01T04:07:22;21.20;99.90
14411;DHT22;7290;50.854;4.354;2022-08-01T04:09:48;21.10;99.90
14411;DHT22;7290;50.854;4.354;2022-08-01T04:12:14;21.10;99.90
14411;DHT22;7290;50.854;4.354;2022-08-01T04:14:40;21.10;99.90
14411;DHT22;7290;50.854;4.354;2022-08-01T04:17:06;21.10;99.90
14411;DHT22;7290;50.854;4.354;2022-08-01T04:19:32;21.20;99.90
14411;DHT22;7290;50.854;4.354;2022-08-01T04:21:58;21.10;99.90
14411;DHT22;7290;50.854;4.354;2022-08-01T04:24:24;21.30;99.90
14411;DHT22;7290;50.854;4.354;2022-08-01T04:26:53;21.30;99.90
14411;DHT22;7290;50.854;4.354;2022-08-01T04:29:19;21.30;99.90
14411;DHT22;7290;50.854;4.354;2022-08-01T04:31:46;21.30;99.90
14411;DHT22;7290;50.854;4.354;2022-08-01T04:34:14;21.30;99.90
14411;DHT22;7290;50.854;4.354;2022-08-01T04:36:41;21.40;99.90
14411;DHT22;7290;50.854;4.354;2022-08-01T04:39:08;21.40;99.90
14411;DHT22;7290;50.854;4.354;2022-08-01T04:41:34;21.40;99.90
14411;DHT22;7290;50.854;4.354;2022-08-01T04:44:02;21.30;99.90
14411;DHT22;7290;50.854;4.354;2022-08-01T04:46:28;21.40;99.90
14411;DHT22;7290;50.854;4.354;2022-08-01T04:48:54;21.40;99.90
14411;DHT22;7290;50.854;4.354;2022-08-01T04:51:20;21.30;99.90
14411;DHT22;7290;50.854;4.354;2022-08-01T04:53:47;21.40;99.90
14411;DHT22;7290;50.854;4.354;2022-08-01T04:56:14;21.40;99.90
14411;DHT22;7290;50.854;4.354;2022-08-01T04:58:40;21.40;99.90
14411;DHT22;7290;50.854;4.354;2022-08-01T05:01:06;21.30;99.90
14411;DHT22;7290;50.854;4.354;2022-08-01T05:03:32;21.20;99.90
14411;DHT22;7290;50.854;4.354;2022-08-01T05:05:58;21.30;99.90
14411;DHT22;7290;50.854;4.354;2022-08-01T05:08:25;21.50;99.90
14411;DHT22;7290;50.854;4.354;2022-08-01T05:10:51;21.60;99.90
14411;DHT22;7290;50.854;4.354;2022-08-01T05:13:18;21.60;99.90
14411;DHT22;7290;50.854;4.354;2022-08-01T05:15:44;21.60;99.90
14411;DHT22;7290;50.854;4.354;2022-08-01T05:18:10;21.60;99.90
14411;DHT22;7290;50.854;4.354;2022-08-01T05:20:36;21.60;99.90
14411;DHT22;7290;50.854;4.354;2022-08-01T05:23:02;21.80;99.90
14411;DHT22;7290;50.854;4.354;2022-08-01T05:25:28;21.70;99.90
14411;DHT22;7290;50.854;4.354;2022-08-01T05:27:54;21.60;99.90
14411;DHT22;7290;50.854;4.354;2022-08-01T05:30:21;21.60;99.90
14411;DHT22;7290;50.854;4.354;2022-08-01T05:32:47;21.40;99.90
14411;DHT22;7290;50.854;4.354;2022-08-01T05:35:12;21.40;99.90
14411;DHT22;7290;50.854;4.354;2022-08-01T05:37:38;21.60;99.90
14411;DHT22;7290;50.854;4.354;2022-08-01T05:40:05;21.60;99.90
14411;DHT22;7290;50.854;4.354;2022-08-01T05:42:31;21.80;99.90
14411;DHT22;7290;50.854;4.354;2022-08-01T05:44:57;21.80;99.90
14411;DHT22;7290;50.854;4.354;2022-08-01T05:47:23;21.90;99.90
14411;DHT22;7290;50.854;4.354;2022-08-01T05:49:49;21.80;99.90
14411;DHT22;7290;50.854;4.354;2022-08-01T05:52:15;21.80;99.90
14411;DHT22;7290;50.854;4.354;2022-08-01T05:54:41;21.80;99.90
14411;DHT22;7290;50.854;4.354;2022-08-01T05:57:07;21.80;99.90
14411;DHT22;7290;50.854;4.354;2022-08-01T05:59:33;21.80;99.90
14411;DHT22;7290;50.854;4.354;2022-08-01T06:01:59;21.80;99.90
14411;DHT22;7290;50.854;4.354;2022-08-01T06:04:26;21.90;99.90
14411;DHT22;7290;50.854;4.354;2022-08-01T06:06:52;21.80;99.90
14411;DHT22;7290;50.854;4.354;2022-08-01T06:09:17;21.70;99.90
14411;DHT22;7290;50.854;4.354;2022-08-01T06:11:43;21.90;99.90
14411;DHT22;7290;50.854;4.354;2022-08-01T06:14:09;21.90;99.90
14411;DHT22;7290;50.854;4.354;2022-08-01T06:16:35;22.00;99.90
14411;DHT22;7290;50.854;4.354;2022-08-01T06:19:01;22.00;99.90
14411;DHT22;7290;50.854;4.354;2022-08-01T06:21:28;22.00;99.90
14411;DHT22;7290;50.854;4.354;2022-08-01T06:23:53;22.00;99.90
14411;DHT22;7290;50.854;4.354;2022-08-01T06:26:20;22.00;99.90
14411;DHT22;7290;50.854;4.354;2022-08-01T06:28:46;22.10;99.90
14411;DHT22;7290;50.854;4.354;2022-08-01T06:31:12;22.20;99.90
14411;DHT22;7290;50.854;4.354;2022-08-01T06:33:39;22.30;99.90
14411;DHT22;7290;50.854;4.354;2022-08-01T06:36:05;22.60;99.90
14411;DHT22;7290;50.854;4.354;2022-08-01T06:38:31;22.80;99.90
14411;DHT22;7290;50.854;4.354;2022-08-01T06:40:57;22.70;99.90
14411;DHT22;7290;50.854;4.354;2022-08-01T06:43:23;23.00;99.90
14411;DHT22;7290;50.854;4.354;2022-08-01T06:45:49;23.10;99.90
14411;DHT22;7290;50.854;4.354;2022-08-01T06:48:15;23.30;99.90
14411;DHT22;7290;50.854;4.354;2022-08-01T06:50:41;23.10;99.90
14411;DHT22;7290;50.854;4.354;2022-08-01T06:53:07;23.00;99.90
14411;DHT22;7290;50.854;4.354;2022-08-01T06:55:34;23.10;99.90
14411;DHT22;7290;50.854;4.354;2022-08-01T06:57:59;23.30;99.90
14411;DHT22;7290;50.854;4.354;2022-08-01T07:00:25;23.50;99.90
14411;DHT22;7290;50.854;4.354;2022-08-01T07:02:52;23.80;99.90
14411;DHT22;7290;50.854;4.354;2022-08-01T07:05:18;24.00;99.90
14411;DHT22;7290;50.854;4.354;2022-08-01T07:07:44;24.20;99.90
14411;DHT22;7290;50.854;4.354;2022-08-01T07:10:10;24.30;99.90
14411;DHT22;7290;50.854;4.354;2022-08-01T07:12:37;24.50;99.90
14411;DHT22;7290;50.854;4.354;2022-08-01T07:15:04;24.20;99.90
14411;DHT22;7290;50.854;4.354;2022-08-01T07:17:30;24.30;99.90
14411;DHT22;7290;50.854;4.354;2022-08-01T07:19:56;24.20;99.90
14411;DHT22;7290;50.854;4.354;2022-08-01T07:22:22;24.30;99.90
14411;DHT22;7290;50.854;4.354;2022-08-01T07:24:48;24.10;99.90
14411;DHT22;7290;50.854;4.354;2022-08-01T07:27:14;24.10;99.90
14411;DHT22;7290;50.854;4.354;2022-08-01T07:29:41;24.00;99.90
14411;DHT22;7290;50.854;4.354;2022-08-01T07:32:07;23.90;99.90
14411;DHT22;7290;50.854;4.354;2022-08-01T07:34:33;23.90;99.90
14411;DHT22;7290;50.854;4.354;2022-08-01T07:36:59;23.80;99.90
14411;DHT22;7290;50.854;4.354;2022-08-01T07:39:24;23.80;99.90
14411;DHT22;7290;50.854;4.354;2022-08-01T07:41:50;23.90;99.90
14411;DHT22;7290;50.854;4.354;2022-08-01T07:44:16;24.20;99.90
14411;DHT22;7290;50.854;4.354;2022-08-01T07:46:43;24.40;99.90
14411;DHT22;7290;50.854;4.354;2022-08-01T07:49:09;24.40;99.90
14411;DHT22;7290;50.854;4.354;2022-08-01T07:51:35;24.90;99.90
14411;DHT22;7290;50.854;4.354;2022-08-01T07:54:01;25.30;99.90
14411;DHT22;7290;50.854;4.354;2022-08-01T07:56:26;25.60;99.90
14411;DHT22;7290;50.854;4.354;2022-08-01T07:58:52;25.80;99.90
14411;DHT22;7290;50.854;4.354;2022-08-01T08:01:18;25.50;99.90
14411;DHT22;7290;50.854;4.354;2022-08-01T08:03:45;25.80;99.90
14411;DHT22;7290;50.854;4.354;2022-08-01T08:06:11;25.10;99.90
14411;DHT22;7290;50.854;4.354;2022-08-01T08:08:37;24.90;99.90
14411;DHT22;7290;50.854;4.354;2022-08-01T08:11:04;24.90;99.90
14411;DHT22;7290;50.854;4.354;2022-08-01T08:13:29;24.80;99.90
14411;DHT22;7290;50.854;4.354;2022-08-01T08:15:55;24.50;99.90
14411;DHT22;7290;50.854;4.354;2022-08-01T08:18:23;24.20;99.90
14411;DHT22;7290;50.854;4.354;2022-08-01T08:20:50;24.20;99.90
14411;DHT22;7290;50.854;4.354;2022-08-01T08:23:16;24.20;99.90
14411;DHT22;7290;50.854;4.354;2022-08-01T08:26:00;24.20;99.90
14411;DHT22;7290;50.854;4.354;2022-08-01T08:28:26;24.20;99.90
14411;DHT22;7290;50.854;4.354;2022-08-01T08:30:52;24.50;99.90
14411;DHT22;7290;50.854;4.354;2022-08-01T08:33:20;24.90;99.90
14411;DHT22;7290;50.854;4.354;2022-08-01T08:35:46;25.80;99.90
14411;DHT22;7290;50.854;4.354;2022-08-01T08:38:12;27.10;99.90
14411;DHT22;7290;50.854;4.354;2022-08-01T08:40:38;28.00;99.90
14411;DHT22;7290;50.854;4.354;2022-08-01T08:43:05;28.30;99.90
14411;DHT22;7290;50.854;4.354;2022-08-01T08:45:31;28.60;99.90
14411;DHT22;7290;50.854;4.354;2022-08-01T08:47:57;28.20;99.90
14411;DHT22;7290;50.854;4.354;2022-08-01T08:50:23;27.90;99.90
14411;DHT22;7290;50.854;4.354;2022-08-01T08:52:49;27.90;99.90
14411;DHT22;7290;50.854;4.354;2022-08-01T08:55:16;27.50;99.90
14411;DHT22;7290;50.854;4.354;2022-08-01T08:57:42;27.60;99.90
14411;DHT22;7290;50.854;4.354;2022-08-01T09:00:09;28.00;99.90
14411;DHT22;7290;50.854;4.354;2022-08-01T09:02:39;28.50;99.90
14411;DHT22;7290;50.854;4.354;2022-08-01T09:05:06;28.90;99.80
14411;DHT22;7290;50.854;4.354;2022-08-01T09:07:32;28.80;99.50
14411;DHT22;7290;50.854;4.354;2022-08-01T09:09:58;28.10;99.90
14411;DHT22;7290;50.854;4.354;2022-08-01T09:12:24;27.30;99.90
14411;DHT22;7290;50.854;4.354;2022-08-01T09:14:50;26.80;99.90
14411;DHT22;7290;50.854;4.354;2022-08-01T09:17:18;26.60;99.90
14411;DHT22;7290;50.854;4.354;2022-08-01T09:19:46;26.60;99.90
14411;DHT22;7290;50.854;4.354;2022-08-01T09:22:17;26.30;99.90
14411;DHT22;7290;50.854;4.354;2022-08-01T09:24:56;26.30;99.90
14411;DHT22;7290;50.854;4.354;2022-08-01T09:27:22;26.40;99.90
14411;DHT22;7290;50.854;4.354;2022-08-01T09:29:50;26.50;99.90
14411;DHT22;7290;50.854;4.354;2022-08-01T09:32:16;26.70;99.90
14411;DHT22;7290;50.854;4.354;2022-08-01T09:34:42;26.80;99.90
14411;DHT22;7290;50.854;4.354;2022-08-01T09:37:08;27.90;99.90
14411;DHT22;7290;50.854;4.354;2022-08-01T09:39:35;28.90;99.90
14411;DHT22;7290;50.854;4.354;2022-08-01T09:42:18;29.90;98.50
14411;DHT22;7290;50.854;4.354;2022-08-01T09:44:44;30.90;96.70
14411;DHT22;7290;50.854;4.354;2022-08-01T09:47:11;32.20;94.90
14411;DHT22;7290;50.854;4.354;2022-08-01T09:49:38;33.80;92.60
14411;DHT22;7290;50.854;4.354;2022-08-01T09:52:11;34.90;90.70
14411;DHT22;7290;50.854;4.354;2022-08-01T09:54:38;36.30;86.60
14411;DHT22;7290;50.854;4.354;2022-08-01T09:57:08;34.90;88.10
14411;DHT22;7290;50.854;4.354;2022-08-01T09:59:34;34.60;88.30
14411;DHT22;7290;50.854;4.354;2022-08-01T10:02:00;34.00;89.00
14411;DHT22;7290;50.854;4.354;2022-08-01T10:04:27;34.10;88.90
14411;DHT22;7290;50.854;4.354;2022-08-01T10:06:53;34.70;87.90
14411;DHT22;7290;50.854;4.354;2022-08-01T10:09:29;34.00;87.50
14411;DHT22;7290;50.854;4.354;2022-08-01T10:11:56;32.20;90.10
14411;DHT22;7290;50.854;4.354;2022-08-01T10:14:23;30.80;91.80
14411;DHT22;7290;50.854;4.354;2022-08-01T10:16:50;29.30;93.60
14411;DHT22;7290;50.854;4.354;2022-08-01T10:19:16;28.60;94.80
14411;DHT22;7290;50.854;4.354;2022-08-01T10:21:43;29.00;94.40
14411;DHT22;7290;50.854;4.354;2022-08-01T10:24:12;29.60;93.50
14411;DHT22;7290;50.854;4.354;2022-08-01T10:26:39;30.20;92.90
14411;DHT22;7290;50.854;4.354;2022-08-01T10:29:05;30.80;92.00
14411;DHT22;7290;50.854;4.354;2022-08-01T10:31:32;30.90;91.00
14411;DHT22;7290;50.854;4.354;2022-08-01T10:33:58;31.70;90.40
14411;DHT22;7290;50.854;4.354;2022-08-01T10:36:24;32.10;89.50
14411;DHT22;7290;50.854;4.354;2022-08-01T10:38:51;32.10;89.40
14411;DHT22;7290;50.854;4.354;2022-08-01T10:41:18;32.10;89.00
14411;DHT22;7290;50.854;4.354;2022-08-01T10:43:44;32.00;89.40
14411;DHT22;7290;50.854;4.354;2022-08-01T10:46:10;31.80;89.70
14411;DHT22;7290;50.854;4.354;2022-08-01T10:48:39;31.20;90.10
14411;DHT22;7290;50.854;4.354;2022-08-01T10:51:07;30.70;90.90
14411;DHT22;7290;50.854;4.354;2022-08-01T10:53:33;30.20;91.50
14411;DHT22;7290;50.854;4.354;2022-08-01T10:56:00;30.10;91.70
14411;DHT22;7290;50.854;4.354;2022-08-01T10:58:27;30.30;91.80
14411;DHT22;7290;50.854;4.354;2022-08-01T11:01:13;30.90;91.40
14411;DHT22;7290;50.854;4.354;2022-08-01T11:03:40;30.50;91.50
14411;DHT22;7290;50.854;4.354;2022-08-01T11:06:06;29.40;92.70
14411;DHT22;7290;50.854;4.354;2022-08-01T11:08:33;29.50;92.80
14411;DHT22;7290;50.854;4.354;2022-08-01T11:11:03;30.20;92.20
14411;DHT22;7290;50.854;4.354;2022-08-01T11:16:24;31.50;90.50
14411;DHT22;7290;50.854;4.354;2022-08-01T11:18:50;31.30;90.50
14411;DHT22;7290;50.854;4.354;2022-08-01T11:21:16;31.30;90.30
14411;DHT22;7290;50.854;4.354;2022-08-01T11:23:46;31.60;88.80
14411;DHT22;7290;50.854;4.354;2022-08-01T11:26:14;31.30;89.80
14411;DHT22;7290;50.854;4.354;2022-08-01T11:28:44;31.30;89.30
14411;DHT22;7290;50.854;4.354;2022-08-01T11:31:27;31.20;89.60
14411;DHT22;7290;50.854;4.354;2022-08-01T11:33:54;31.90;87.90
14411;DHT22;7290;50.854;4.354;2022-08-01T11:36:19;32.60;86.30
14411;DHT22;7290;50.854;4.354;2022-08-01T11:38:46;32.40;87.40
14411;DHT22;7290;50.854;4.354;2022-08-01T11:41:13;32.80;87.00
14411;DHT22;7290;50.854;4.354;2022-08-01T11:52:05;33.30;84.10
14411;DHT22;7290;50.854;4.354;2022-08-01T11:54:32;32.70;84.20
14411;DHT22;7290;50.854;4.354;2022-08-01T11:56:58;32.90;84.20
14411;DHT22;7290;50.854;4.354;2022-08-01T11:59:24;32.70;84.80
14411;DHT22;7290;50.854;4.354;2022-08-01T12:01:50;32.70;85.10
14411;DHT22;7290;50.854;4.354;2022-08-01T12:04:17;32.70;84.90
14411;DHT22;7290;50.854;4.354;2022-08-01T12:06:43;32.80;85.60
14411;DHT22;7290;50.854;4.354;2022-08-01T12:09:16;32.00;86.00
14411;DHT22;7290;50.854;4.354;2022-08-01T12:11:42;31.20;88.30
14411;DHT22;7290;50.854;4.354;2022-08-01T12:14:08;30.70;89.30
14411;DHT22;7290;50.854;4.354;2022-08-01T12:16:34;30.70;88.80
14411;DHT22;7290;50.854;4.354;2022-08-01T12:19:00;30.30;89.40
14411;DHT22;7290;50.854;4.354;2022-08-01T12:21:26;30.40;89.30
14411;DHT22;7290;50.854;4.354;2022-08-01T12:23:59;30.40;89.20
14411;DHT22;7290;50.854;4.354;2022-08-01T12:26:38;30.50;89.10
14411;DHT22;7290;50.854;4.354;2022-08-01T12:29:04;30.20;89.70
14411;DHT22;7290;50.854;4.354;2022-08-01T12:31:30;30.20;90.20
14411;DHT22;7290;50.854;4.354;2022-08-01T12:33:56;30.40;90.20
14411;DHT22;7290;50.854;4.354;2022-08-01T12:36:26;30.10;90.60
14411;DHT22;7290;50.854;4.354;2022-08-01T12:38:52;29.70;91.00
14411;DHT22;7290;50.854;4.354;2022-08-01T12:41:18;29.60;91.20
14411;DHT22;7290;50.854;4.354;2022-08-01T12:43:46;29.90;90.90
14411;DHT22;7290;50.854;4.354;2022-08-01T12:46:12;29.30;91.30
14411;DHT22;7290;50.854;4.354;2022-08-01T12:48:41;29.30;91.30
14411;DHT22;7290;50.854;4.354;2022-08-01T12:51:07;29.20;91.50
14411;DHT22;7290;50.854;4.354;2022-08-01T12:53:34;29.10;91.60
14411;DHT22;7290;50.854;4.354;2022-08-01T12:56:01;28.80;91.90
14411;DHT22;7290;50.854;4.354;2022-08-01T12:58:30;28.60;91.90
14411;DHT22;7290;50.854;4.354;2022-08-01T13:01:02;28.80;91.80
14411;DHT22;7290;50.854;4.354;2022-08-01T13:03:28;29.10;91.50
14411;DHT22;7290;50.854;4.354;2022-08-01T13:05:55;29.10;91.40
14411;DHT22;7290;50.854;4.354;2022-08-01T13:08:22;29.10;91.40
14411;DHT22;7290;50.854;4.354;2022-08-01T13:10:48;29.30;91.20
14411;DHT22;7290;50.854;4.354;2022-08-01T13:13:15;29.40;91.20
14411;DHT22;7290;50.854;4.354;2022-08-01T13:15:42;29.10;91.50
14411;DHT22;7290;50.854;4.354;2022-08-01T13:18:25;29.20;91.50
14411;DHT22;7290;50.854;4.354;2022-08-01T13:21:06;29.30;91.40
14411;DHT22;7290;50.854;4.354;2022-08-01T13:23:32;29.50;91.10
14411;DHT22;7290;50.854;4.354;2022-08-01T13:25:58;29.30;90.70
14411;DHT22;7290;50.854;4.354;2022-08-01T13:28:24;29.20;90.00
14411;DHT22;7290;50.854;4.354;2022-08-01T13:30:54;29.20;90.10
14411;DHT22;7290;50.854;4.354;2022-08-01T13:33:21;29.20;90.20
14411;DHT22;7290;50.854;4.354;2022-08-01T13:35:49;28.80;90.80
14411;DHT22;7290;50.854;4.354;2022-08-01T13:38:15;28.40;91.20
14411;DHT22;7290;50.854;4.354;2022-08-01T13:40:41;28.10;91.30
14411;DHT22;7290;50.854;4.354;2022-08-01T13:43:08;27.90;91.40
14411;DHT22;7290;50.854;4.354;2022-08-01T13:45:34;27.90;91.10
14411;DHT22;7290;50.854;4.354;2022-08-01T13:48:00;28.10;91.00
14411;DHT22;7290;50.854;4.354;2022-08-01T13:50:26;28.30;91.00
14411;DHT22;7290;50.854;4.354;2022-08-01T13:52:52;28.30;90.40
14411;DHT22;7290;50.854;4.354;2022-08-01T13:55:18;28.20;90.60
14411;DHT22;7290;50.854;4.354;2022-08-01T13:57:44;28.30;90.50
14411;DHT22;7290;50.854;4.354;2022-08-01T14:00:11;28.40;90.40
14411;DHT22;7290;50.854;4.354;2022-08-01T14:02:37;28.70;90.20
14411;DHT22;7290;50.854;4.354;2022-08-01T14:05:03;28.70;90.00
14411;DHT22;7290;50.854;4.354;2022-08-01T14:07:29;28.70;90.00
14411;DHT22;7290;50.854;4.354;2022-08-01T14:09:56;28.80;89.50
14411;DHT22;7290;50.854;4.354;2022-08-01T14:12:22;28.90;89.70
14411;DHT22;7290;50.854;4.354;2022-08-01T14:14:48;28.90;89.30
14411;DHT22;7290;50.854;4.354;2022-08-01T14:17:14;28.60;89.00
14411;DHT22;7290;50.854;4.354;2022-08-01T14:19:40;28.80;88.30
14411;DHT22;7290;50.854;4.354;2022-08-01T14:22:06;28.90;88.40
14411;DHT22;7290;50.854;4.354;2022-08-01T14:24:32;29.00;87.80
14411;DHT22;7290;50.854;4.354;2022-08-01T14:26:59;28.90;87.80
14411;DHT22;7290;50.854;4.354;2022-08-01T14:29:25;29.00;87.60
14411;DHT22;7290;50.854;4.354;2022-08-01T14:31:51;28.80;87.80
14411;DHT22;7290;50.854;4.354;2022-08-01T14:34:17;28.60;88.20
14411;DHT22;7290;50.854;4.354;2022-08-01T14:36:43;28.80;88.40
14411;DHT22;7290;50.854;4.354;2022-08-01T14:39:09;28.40;88.30
14411;DHT22;7290;50.854;4.354;2022-08-01T14:41:35;28.40;88.80
14411;DHT22;7290;50.854;4.354;2022-08-01T14:44:01;28.50;88.50
14411;DHT22;7290;50.854;4.354;2022-08-01T14:46:29;28.80;88.00
14411;DHT22;7290;50.854;4.354;2022-08-01T14:48:55;28.80;87.90
14411;DHT22;7290;50.854;4.354;2022-08-01T14:51:21;28.40;88.30
14411;DHT22;7290;50.854;4.354;2022-08-01T14:53:47;28.00;88.90
14411;DHT22;7290;50.854;4.354;2022-08-01T14:56:13;28.00;89.40
14411;DHT22;7290;50.854;4.354;2022-08-01T14:58:39;28.00;89.30
14411;DHT22;7290;50.854;4.354;2022-08-01T15:01:05;27.80;89.50
14411;DHT22;7290;50.854;4.354;2022-08-01T15:03:31;27.80;89.60
14411;DHT22;7290;50.854;4.354;2022-08-01T15:05:58;27.90;88.90
14411;DHT22;7290;50.854;4.354;2022-08-01T15:08:24;27.90;88.70
14411;DHT22;7290;50.854;4.354;2022-08-01T15:10:50;28.00;89.20
14411;DHT22;7290;50.854;4.354;2022-08-01T15:13:16;28.10;88.30
14411;DHT22;7290;50.854;4.354;2022-08-01T15:15:42;27.90;88.20
14411;DHT22;7290;50.854;4.354;2022-08-01T15:18:09;27.80;88.70
14411;DHT22;7290;50.854;4.354;2022-08-01T15:20:35;27.80;88.80
14411;DHT22;7290;50.854;4.354;2022-08-01T15:23:01;27.80;88.30
14411;DHT22;7290;50.854;4.354;2022-08-01T15:25:27;27.90;88.10
14411;DHT22;7290;50.854;4.354;2022-08-01T15:27:54;28.10;87.20
14411;DHT22;7290;50.854;4.354;2022-08-01T15:30:20;28.10;86.50
14411;DHT22;7290;50.854;4.354;2022-08-01T15:32:46;28.20;86.30
14411;DHT22;7290;50.854;4.354;2022-08-01T15:35:13;28.60;85.60
14411;DHT22;7290;50.854;4.354;2022-08-01T15:37:39;28.80;85.60
14411;DHT22;7290;50.854;4.354;2022-08-01T15:40:05;29.00;85.60
14411;DHT22;7290;50.854;4.354;2022-08-01T15:42:31;29.00;85.90
14411;DHT22;7290;50.854;4.354;2022-08-01T15:44:57;28.90;86.50
14411;DHT22;7290;50.854;4.354;2022-08-01T15:47:23;28.60;87.10
14411;DHT22;7290;50.854;4.354;2022-08-01T15:49:49;28.30;87.30
14411;DHT22;7290;50.854;4.354;2022-08-01T15:52:16;28.20;87.30
14411;DHT22;7290;50.854;4.354;2022-08-01T15:54:42;28.30;87.30